Time;durP1;ratioP1;P1;durP2;ratioP2;P2;SDS_P1;SDS_P2;PMS_P1;PMS_P2;Temp;Humidity;BMP_temperature;BMP_pressure;BME280_temperature;BME280_humidity;BME280_pressure;Samples;Min_cycle;Max_cycle;Signal;HPM_P1;HPM_P2
2023/06/07 00:00:21;;;;;;;6.05;2.38;;;13.30;99.90;;;;;;4960547;28;20499;-34
2023/06/07 00:02:47;;;;;;;6.10;2.17;;;13.20;99.90;;;;;;4966430;28;20046;-34
2023/06/07 00:05:13;;;;;;;8.05;2.30;;;13.20;99.90;;;;;;4955588;28;20056;-34
2023/06/07 00:07:39;;;;;;;7.20;2.60;;;13.10;99.90;;;;;;4960662;28;20073;-34
2023/06/07 00:10:06;;;;;;;8.70;2.47;;;13.10;99.90;;;;;;4960893;28;20061;-34
2023/06/07 00:12:33;;;;;;;6.43;2.20;;;13.00;99.90;;;;;;4965345;28;20151;-33
2023/06/07 00:15:01;;;;;;;9.00;2.40;;;12.90;99.90;;;;;;4961082;28;20043;-33
2023/06/07 00:17:30;;;;;;;4.22;2.00;;;12.90;99.90;;;;;;4967301;28;20492;-34
2023/06/07 00:19:56;;;;;;;8.20;2.65;;;12.90;99.90;;;;;;4962638;28;20057;-35
2023/06/07 00:22:22;;;;;;;5.07;2.10;;;12.90;99.90;;;;;;4957841;28;20125;-34
2023/06/07 00:24:50;;;;;;;7.22;2.20;;;12.90;99.90;;;;;;4940250;28;20043;-34
2023/06/07 00:27:15;;;;;;;9.35;2.55;;;12.90;99.90;;;;;;4955058;28;20508;-35
2023/06/07 00:29:41;;;;;;;10.02;2.80;;;12.90;99.90;;;;;;4953287;28;20043;-34
2023/06/07 00:32:07;;;;;;;9.77;2.42;;;12.80;99.90;;;;;;4958051;28;20054;-34
2023/06/07 00:34:32;;;;;;;6.78;2.20;;;12.70;99.90;;;;;;4960101;28;20051;-34
2023/06/07 00:36:58;;;;;;;7.80;2.25;;;12.70;99.90;;;;;;4957185;28;20054;-34
2023/06/07 00:39:24;;;;;;;8.05;2.15;;;12.70;99.90;;;;;;4955242;28;20572;-34
2023/06/07 00:41:51;;;;;;;6.07;2.05;;;12.70;99.90;;;;;;4955765;28;20141;-34
2023/06/07 00:44:17;;;;;;;7.43;2.10;;;12.70;99.90;;;;;;4954992;28;20055;-34
2023/06/07 00:46:43;;;;;;;9.90;2.75;;;12.80;99.90;;;;;;4964655;28;20457;-34
2023/06/07 00:49:11;;;;;;;8.55;2.80;;;12.70;99.90;;;;;;4959723;28;20051;-34
2023/06/07 00:51:36;;;;;;;11.40;2.70;;;12.70;99.90;;;;;;4959318;28;20070;-34
2023/06/07 00:54:05;;;;;;;9.90;3.33;;;12.70;99.90;;;;;;4963857;28;20054;-34
2023/06/07 00:56:31;;;;;;;10.32;2.33;;;12.70;99.90;;;;;;4955505;28;20054;-34
2023/06/07 00:58:58;;;;;;;13.82;2.60;;;12.60;99.90;;;;;;4960509;28;20055;-34
2023/06/07 01:01:24;;;;;;;5.13;2.30;;;12.60;99.90;;;;;;4940830;28;20094;-39
2023/06/07 01:03:51;;;;;;;5.78;2.33;;;12.50;99.90;;;;;;4961353;28;20451;-34
2023/06/07 01:06:16;;;;;;;7.70;3.08;;;12.50;99.90;;;;;;4956929;28;20055;-34
2023/06/07 01:08:43;;;;;;;10.30;2.63;;;12.40;99.90;;;;;;4962470;28;20042;-34
2023/06/07 01:11:10;;;;;;;9.82;4.45;;;12.40;99.90;;;;;;4958859;28;20524;-34
2023/06/07 01:13:38;;;;;;;7.80;2.60;;;12.40;99.90;;;;;;4960105;28;20382;-34
2023/06/07 01:16:05;;;;;;;13.35;3.13;;;12.40;99.90;;;;;;4959716;28;20480;-34
2023/06/07 01:18:30;;;;;;;11.80;3.63;;;12.40;99.90;;;;;;4943847;28;20058;-34
2023/06/07 01:20:58;;;;;;;13.13;2.70;;;12.40;99.90;;;;;;4962773;28;20054;-34
2023/06/07 01:23:31;;;;;;;10.05;3.28;;;12.40;99.90;;;;;;4957642;28;20081;-34
2023/06/07 01:25:58;;;;;;;10.88;2.88;;;12.40;99.90;;;;;;4960326;28;20126;-34
2023/06/07 01:28:30;;;;;;;11.25;2.78;;;12.30;99.90;;;;;;4959095;28;20497;-36
2023/06/07 01:30:57;;;;;;;13.68;4.38;;;12.30;99.90;;;;;;4957596;28;20059;-34
2023/06/07 01:33:24;;;;;;;8.32;3.00;;;12.30;99.90;;;;;;4952930;28;20112;-34
2023/06/07 01:35:52;;;;;;;8.55;2.85;;;12.20;99.90;;;;;;4956421;28;20054;-34
2023/06/07 01:38:20;;;;;;;14.85;3.50;;;12.20;99.90;;;;;;4965295;28;20488;-34
2023/06/07 01:40:47;;;;;;;10.15;4.03;;;12.20;99.90;;;;;;4953455;28;20074;-34
2023/06/07 01:43:13;;;;;;;10.38;3.33;;;12.10;99.90;;;;;;4953070;28;20067;-34
2023/06/07 01:45:40;;;;;;;10.27;3.22;;;12.10;99.90;;;;;;4959421;28;20046;-34
2023/06/07 01:48:06;;;;;;;10.93;2.80;;;12.10;99.90;;;;;;4956467;28;20500;-34
2023/06/07 01:50:32;;;;;;;13.10;3.13;;;12.00;99.90;;;;;;4958328;28;20071;-34
2023/06/07 01:52:58;;;;;;;11.75;3.70;;;12.00;99.90;;;;;;4959627;28;20074;-34
2023/06/07 01:55:24;;;;;;;7.53;2.88;;;11.90;99.90;;;;;;4956367;28;20054;-34
2023/06/07 01:58:23;;;;;;;10.93;2.78;;;11.90;99.90;;;;;;4962069;28;20042;-34
2023/06/07 02:00:53;;;;;;;10.73;3.47;;;11.90;99.90;;;;;;4957404;28;20698;-34
2023/06/07 02:03:26;;;;;;;11.15;3.47;;;11.90;99.90;;;;;;4957796;28;20042;-34
2023/06/07 02:05:57;;;;;;;8.77;3.72;;;11.80;99.90;;;;;;4960275;28;20055;-34
2023/06/07 02:08:32;;;;;;;8.52;3.10;;;11.80;99.90;;;;;;4954139;28;20039;-34
2023/06/07 02:10:58;;;;;;;7.95;3.00;;;11.70;99.90;;;;;;4950178;28;20047;-34
2023/06/07 02:13:27;;;;;;;8.45;3.35;;;11.70;99.90;;;;;;4967012;28;20481;-34
2023/06/07 02:15:53;;;;;;;11.60;4.03;;;11.60;99.90;;;;;;4948262;28;20047;-34
2023/06/07 02:18:19;;;;;;;10.75;3.33;;;11.60;99.90;;;;;;4954993;28;20061;-34
2023/06/07 02:20:45;;;;;;;9.75;3.85;;;11.60;99.90;;;;;;4958900;28;20062;-34
2023/06/07 02:23:11;;;;;;;10.57;3.95;;;11.60;99.90;;;;;;4941816;28;20055;-34
2023/06/07 02:25:36;;;;;;;12.45;4.60;;;11.50;99.90;;;;;;4958225;28;20058;-34
2023/06/07 02:28:02;;;;;;;9.45;3.00;;;11.40;99.90;;;;;;4956086;28;20607;-34
2023/06/07 02:30:28;;;;;;;9.65;3.60;;;11.40;99.90;;;;;;4958872;28;20783;-34
2023/06/07 02:32:54;;;;;;;7.75;3.38;;;11.30;99.90;;;;;;4941864;28;20105;-34
2023/06/07 02:35:21;;;;;;;12.05;4.25;;;11.30;99.90;;;;;;4936554;28;20093;-34
2023/06/07 02:37:47;;;;;;;8.95;3.80;;;11.30;99.90;;;;;;4956131;28;20045;-34
2023/06/07 02:40:14;;;;;;;7.30;3.47;;;11.30;99.90;;;;;;4954637;28;20043;-34
2023/06/07 02:42:48;;;;;;;12.38;3.55;;;11.20;99.90;;;;;;4957452;28;20050;-33
2023/06/07 02:45:15;;;;;;;13.43;4.93;;;11.20;99.90;;;;;;4956077;28;20493;-34
2023/06/07 02:47:41;;;;;;;8.98;3.53;;;11.20;99.90;;;;;;4951956;28;20035;-34
2023/06/07 02:50:07;;;;;;;7.70;3.47;;;11.20;99.90;;;;;;4961744;28;20133;-34
2023/06/07 02:52:33;;;;;;;8.32;3.53;;;11.20;99.90;;;;;;4942632;28;20051;-34
2023/06/07 02:55:00;;;;;;;7.65;3.75;;;11.20;99.90;;;;;;4955108;28;20054;-34
2023/06/07 02:57:26;;;;;;;10.15;3.58;;;11.20;99.90;;;;;;4953648;28;20082;-34
2023/06/07 02:59:54;;;;;;;6.75;3.35;;;11.20;99.90;;;;;;4934051;28;20047;-34
2023/06/07 03:02:20;;;;;;;9.57;3.63;;;11.20;99.90;;;;;;4954077;28;20126;-34
2023/06/07 03:04:46;;;;;;;10.75;4.40;;;11.20;99.90;;;;;;4948951;28;20527;-34
2023/06/07 03:07:12;;;;;;;10.18;3.67;;;11.20;99.90;;;;;;4954659;28;20050;-34
2023/06/07 03:09:41;;;;;;;9.63;4.30;;;11.20;99.90;;;;;;4957311;28;20107;-34
2023/06/07 03:12:07;;;;;;;7.68;4.45;;;11.20;99.90;;;;;;4964371;28;20061;-34
2023/06/07 03:14:33;;;;;;;9.05;3.72;;;11.20;99.90;;;;;;4965331;28;20437;-34
2023/06/07 03:17:02;;;;;;;9.65;4.68;;;11.10;99.90;;;;;;4963068;28;20059;-34
2023/06/07 03:19:28;;;;;;;10.32;3.30;;;11.10;99.90;;;;;;4964969;28;20864;-34
2023/06/07 03:21:53;;;;;;;6.63;3.45;;;11.10;99.90;;;;;;4962345;28;20051;-34
2023/06/07 03:24:19;;;;;;;8.77;3.22;;;11.10;99.90;;;;;;4958741;28;20055;-34
2023/06/07 03:26:45;;;;;;;8.20;3.85;;;11.10;99.90;;;;;;4966018;28;20089;-33
2023/06/07 03:29:10;;;;;;;6.93;3.60;;;11.10;99.90;;;;;;4954994;28;20074;-34
2023/06/07 03:31:37;;;;;;;6.38;3.60;;;11.10;99.90;;;;;;4966698;28;20654;-34
2023/06/07 03:34:03;;;;;;;9.70;4.22;;;11.10;99.90;;;;;;4965303;28;20066;-34
2023/06/07 03:36:29;;;;;;;8.13;3.75;;;11.10;99.90;;;;;;4960459;28;20062;-34
2023/06/07 03:38:58;;;;;;;7.82;3.33;;;11.10;99.90;;;;;;4961638;28;21084;-34
2023/06/07 03:41:25;;;;;;;10.20;3.30;;;11.10;99.90;;;;;;4960883;28;20051;-39
2023/06/07 03:43:51;;;;;;;7.47;3.78;;;11.20;99.90;;;;;;4958475;28;20050;-34
2023/06/07 03:46:17;;;;;;;10.05;3.55;;;11.30;99.90;;;;;;4962710;28;20054;-35
2023/06/07 03:48:43;;;;;;;9.98;3.20;;;11.30;99.90;;;;;;4965813;28;20054;-35
2023/06/07 03:51:09;;;;;;;11.80;3.60;;;11.40;99.90;;;;;;4960614;28;20182;-36
2023/06/07 03:53:35;;;;;;;13.38;3.53;;;11.40;99.90;;;;;;4967713;28;20062;-34
2023/06/07 03:56:01;;;;;;;13.88;3.55;;;11.50;99.90;;;;;;4957534;28;20051;-33
2023/06/07 03:58:27;;;;;;;15.20;3.88;;;11.60;99.90;;;;;;4964632;28;20062;-34
2023/06/07 04:00:53;;;;;;;9.27;3.17;;;11.60;99.90;;;;;;4968791;28;20047;-34
2023/06/07 04:03:24;;;;;;;8.95;2.97;;;11.60;99.90;;;;;;4960573;28;20484;-33
2023/06/07 04:05:51;;;;;;;13.93;3.72;;;11.60;99.90;;;;;;4942898;28;20059;-34
2023/06/07 04:08:17;;;;;;;11.93;3.45;;;11.70;99.90;;;;;;4965400;28;20087;-33
2023/06/07 04:10:42;;;;;;;12.38;3.53;;;11.70;99.90;;;;;;4960472;28;20113;-34
2023/06/07 04:13:08;;;;;;;10.77;4.20;;;11.70;99.90;;;;;;4957400;28;22310;-39
2023/06/07 04:15:34;;;;;;;11.30;4.65;;;11.70;99.90;;;;;;4960255;28;20729;-34
2023/06/07 04:18:00;;;;;;;11.80;4.10;;;11.70;99.90;;;;;;4965322;28;20054;-34
2023/06/07 04:20:28;;;;;;;8.43;3.58;;;11.70;99.90;;;;;;4958562;28;20066;-34
2023/06/07 04:22:54;;;;;;;12.35;3.97;;;11.70;99.90;;;;;;4957990;28;20063;-34
2023/06/07 04:25:36;;;;;;;8.05;2.95;;;11.80;99.90;;;;;;4957691;28;20058;-34
2023/06/07 04:28:02;;;;;;;8.23;3.40;;;11.80;99.90;;;;;;4957447;28;20562;-34
2023/06/07 04:30:34;;;;;;;8.35;3.17;;;11.80;99.90;;;;;;4941928;28;20416;-34
2023/06/07 04:33:08;;;;;;;13.73;3.70;;;11.90;99.90;;;;;;4957233;28;20073;-34
2023/06/07 04:35:37;;;;;;;9.15;3.03;;;11.90;99.90;;;;;;4958249;28;20071;-34
2023/06/07 04:38:03;;;;;;;8.70;3.78;;;11.90;99.90;;;;;;4958467;28;20050;-34
2023/06/07 04:40:31;;;;;;;8.63;3.00;;;12.00;99.90;;;;;;4958553;28;20061;-35
2023/06/07 04:43:05;;;;;;;13.05;2.95;;;12.10;99.90;;;;;;4953993;28;20047;-34
2023/06/07 04:45:36;;;;;;;11.07;2.65;;;12.10;99.90;;;;;;4953147;28;20054;-34
2023/06/07 04:48:04;;;;;;;8.80;2.65;;;12.20;99.90;;;;;;4957381;28;20055;-34
2023/06/07 04:50:30;;;;;;;9.20;2.47;;;12.30;99.90;;;;;;4956681;28;20134;-34
2023/06/07 04:53:03;;;;;;;12.13;2.80;;;12.30;99.90;;;;;;4943602;28;20482;-34
2023/06/07 04:55:34;;;;;;;6.55;2.58;;;12.30;99.90;;;;;;4959667;28;20531;-34
2023/06/07 04:58:04;;;;;;;8.93;2.10;;;12.40;99.90;;;;;;4958183;28;20413;-35
2023/06/07 05:00:30;;;;;;;6.82;2.30;;;12.40;99.90;;;;;;4962768;28;20047;-36
2023/06/07 05:02:58;;;;;;;7.65;2.25;;;12.50;99.90;;;;;;4955863;28;20047;-35
2023/06/07 05:05:24;;;;;;;8.02;1.92;;;12.60;99.90;;;;;;4958682;28;20411;-36
2023/06/07 05:07:50;;;;;;;11.82;2.47;;;12.60;99.90;;;;;;4957588;28;20043;-36
2023/06/07 05:10:18;;;;;;;4.80;2.20;;;12.70;99.90;;;;;;4953528;28;20062;-34
2023/06/07 05:12:44;;;;;;;11.73;2.53;;;12.70;99.90;;;;;;4961555;28;20043;-35
2023/06/07 05:15:11;;;;;;;8.85;1.75;;;12.80;99.90;;;;;;4941271;28;20259;-35
2023/06/07 05:17:38;;;;;;;9.93;2.28;;;12.90;99.90;;;;;;4960089;28;20109;-34
2023/06/07 05:20:10;;;;;;;7.22;1.80;;;13.00;99.90;;;;;;4962515;28;20046;-34
2023/06/07 05:22:38;;;;;;;11.95;2.42;;;13.10;99.90;;;;;;4954464;28;20138;-34
2023/06/07 05:25:04;;;;;;;7.25;1.33;;;13.20;99.90;;;;;;4958854;28;20413;-34
2023/06/07 05:27:30;;;;;;;6.03;1.48;;;13.20;99.90;;;;;;4966029;28;20054;-33
2023/06/07 05:29:56;;;;;;;5.93;1.50;;;13.30;99.90;;;;;;4958185;28;20061;-34
2023/06/07 05:32:21;;;;;;;7.78;1.80;;;13.30;99.90;;;;;;4956711;28;20059;-34
2023/06/07 05:34:48;;;;;;;8.80;1.70;;;13.40;99.90;;;;;;4958902;28;20055;-34
2023/06/07 05:37:14;;;;;;;6.53;1.83;;;13.40;99.90;;;;;;4952450;28;20157;-36
2023/06/07 05:39:41;;;;;;;9.40;1.70;;;13.40;99.90;;;;;;4957364;28;20161;-34
2023/06/07 05:42:07;;;;;;;9.40;2.10;;;13.40;99.90;;;;;;4954701;28;20057;-34
2023/06/07 05:44:34;;;;;;;12.75;2.60;;;13.50;99.90;;;;;;4955868;28;20050;-34
2023/06/07 05:47:00;;;;;;;10.57;1.83;;;13.40;99.90;;;;;;4963334;28;20047;-34
2023/06/07 05:49:25;;;;;;;5.45;1.80;;;13.50;99.90;;;;;;4934063;28;20059;-34
2023/06/07 05:51:51;;;;;;;6.72;2.05;;;13.50;99.90;;;;;;4954114;28;20073;-35
2023/06/07 05:54:17;;;;;;;10.75;2.13;;;13.60;99.90;;;;;;4960952;28;20098;-34
2023/06/07 05:56:43;;;;;;;17.63;2.80;;;13.50;99.90;;;;;;4960547;28;20057;-35
2023/06/07 05:59:08;;;;;;;13.93;2.10;;;13.60;99.90;;;;;;4958498;28;20058;-34
2023/06/07 06:01:34;;;;;;;7.68;2.10;;;13.60;99.90;;;;;;4955347;28;20051;-39
2023/06/07 06:04:01;;;;;;;7.88;2.05;;;13.60;99.90;;;;;;4956830;28;20097;-34
2023/06/07 06:06:27;;;;;;;9.75;1.73;;;13.70;99.90;;;;;;4955349;28;20061;-34
2023/06/07 06:08:52;;;;;;;11.73;2.13;;;13.70;99.90;;;;;;4954010;28;20050;-34
2023/06/07 06:11:18;;;;;;;14.73;3.97;;;13.80;99.90;;;;;;4951940;28;20053;-34
2023/06/07 06:13:44;;;;;;;6.35;2.35;;;13.90;99.90;;;;;;4956881;28;20054;-34
2023/06/07 06:16:10;;;;;;;11.65;2.00;;;13.90;99.90;;;;;;4950446;28;20423;-34
2023/06/07 06:18:36;;;;;;;8.85;1.90;;;13.90;99.90;;;;;;4956487;28;20055;-34
2023/06/07 06:21:03;;;;;;;9.07;2.05;;;14.00;99.90;;;;;;4958137;28;20138;-34
2023/06/07 06:23:28;;;;;;;6.15;2.00;;;14.00;99.90;;;;;;4952316;28;20136;-34
2023/06/07 06:25:54;;;;;;;4.72;1.70;;;14.10;99.90;;;;;;4951248;28;20067;-35
2023/06/07 06:28:21;;;;;;;6.72;2.10;;;14.10;99.90;;;;;;4952531;28;20508;-35
2023/06/07 06:30:47;;;;;;;8.27;2.15;;;14.10;99.90;;;;;;4953606;28;20042;-35
2023/06/07 06:33:12;;;;;;;9.15;1.88;;;14.20;99.90;;;;;;4949001;28;20408;-35
2023/06/07 06:35:38;;;;;;;8.23;1.92;;;14.20;99.90;;;;;;4951546;28;20047;-35
2023/06/07 06:38:04;;;;;;;8.73;2.22;;;14.20;99.90;;;;;;4950476;28;20047;-35
2023/06/07 06:40:29;;;;;;;4.70;1.70;;;14.30;99.90;;;;;;4932501;28;20741;-36
2023/06/07 06:42:55;;;;;;;7.13;1.90;;;14.30;99.90;;;;;;4950119;28;20066;-36
2023/06/07 06:45:21;;;;;;;7.70;2.33;;;14.30;99.90;;;;;;4948522;28;20049;-35
2023/06/07 06:47:46;;;;;;;7.35;1.90;;;14.40;99.90;;;;;;4953899;28;20074;-34
2023/06/07 06:50:13;;;;;;;8.93;2.40;;;14.50;99.90;;;;;;4959201;28;20495;-34
2023/06/07 06:52:40;;;;;;;7.60;2.45;;;14.50;99.90;;;;;;4949283;28;20420;-34
2023/06/07 06:55:06;;;;;;;10.52;2.88;;;14.50;99.90;;;;;;4956228;28;20109;-34
2023/06/07 06:57:32;;;;;;;6.00;2.67;;;14.60;99.90;;;;;;4953893;28;20055;-34
2023/06/07 07:00:10;;;;;;;5.78;2.67;;;14.60;99.90;;;;;;4954326;28;20039;-34
2023/06/07 07:02:37;;;;;;;7.28;2.17;;;14.70;99.90;;;;;;4959646;28;20081;-34
2023/06/07 07:05:05;;;;;;;10.23;3.10;;;14.60;99.90;;;;;;4961108;28;20102;-34
2023/06/07 07:07:31;;;;;;;7.78;2.60;;;14.60;99.90;;;;;;4962729;28;20073;-34
2023/06/07 07:09:57;;;;;;;7.25;2.60;;;14.60;99.90;;;;;;4957938;28;20075;-35
2023/06/07 07:12:23;;;;;;;6.78;2.90;;;14.70;99.90;;;;;;4943592;28;20083;-34
2023/06/07 07:14:49;;;;;;;5.82;1.73;;;14.80;99.90;;;;;;4959394;28;20053;-34
2023/06/07 07:17:15;;;;;;;10.82;1.98;;;14.80;99.90;;;;;;4960938;28;20121;-34
2023/06/07 07:19:41;;;;;;;6.95;2.17;;;14.90;99.90;;;;;;4961963;28;20046;-35
2023/06/07 07:22:06;;;;;;;9.00;2.00;;;15.00;99.90;;;;;;4960340;28;20530;-34
2023/06/07 07:24:32;;;;;;;5.32;1.70;;;14.90;99.90;;;;;;4952104;28;20402;-34
2023/06/07 07:26:58;;;;;;;7.90;1.55;;;14.90;99.90;;;;;;4934398;28;20798;-34
2023/06/07 07:29:23;;;;;;;5.85;1.52;;;15.00;99.90;;;;;;4951343;28;20118;-34
2023/06/07 07:31:49;;;;;;;6.88;1.55;;;15.00;99.90;;;;;;4947993;28;20050;-34
2023/06/07 07:34:16;;;;;;;4.60;1.48;;;15.20;99.90;;;;;;4953370;28;20058;-35
2023/06/07 07:36:44;;;;;;;5.57;1.95;;;15.20;99.90;;;;;;4946145;28;20063;-34
2023/06/07 07:39:15;;;;;;;8.88;1.63;;;15.30;99.90;;;;;;4950347;28;20043;-34
2023/06/07 07:41:41;;;;;;;14.65;2.97;;;15.50;99.90;;;;;;4960989;28;20077;-34
2023/06/07 07:44:07;;;;;;;11.10;1.85;;;15.60;99.90;;;;;;4955066;28;20062;-35
2023/06/07 07:46:33;;;;;;;14.35;2.75;;;15.80;99.90;;;;;;4954646;28;20051;-34
2023/06/07 07:48:59;;;;;;;5.93;1.95;;;15.90;99.90;;;;;;4955655;28;20074;-34
2023/06/07 07:51:25;;;;;;;8.13;2.35;;;16.00;99.90;;;;;;4963533;28;20059;-34
2023/06/07 07:53:53;;;;;;;7.85;1.60;;;16.10;99.90;;;;;;4962456;28;20066;-34
2023/06/07 07:56:21;;;;;;;6.72;1.80;;;16.10;99.90;;;;;;4960132;28;20049;-34
2023/06/07 07:58:48;;;;;;;7.72;1.67;;;16.10;99.90;;;;;;4964716;28;20050;-34
2023/06/07 08:01:18;;;;;;;5.18;1.90;;;16.10;99.90;;;;;;4944000;28;20086;-34
2023/06/07 08:03:45;;;;;;;5.07;1.80;;;16.10;99.90;;;;;;4950615;28;20493;-34
2023/06/07 08:06:11;;;;;;;7.78;2.13;;;16.20;99.90;;;;;;4946289;28;20054;-34
2023/06/07 08:08:37;;;;;;;5.88;1.38;;;16.40;99.90;;;;;;4963686;28;20081;-34
2023/06/07 08:11:02;;;;;;;7.03;1.23;;;16.60;99.90;;;;;;4963763;28;20062;-34
2023/06/07 08:13:28;;;;;;;5.65;1.45;;;16.90;99.90;;;;;;4960694;28;20145;-34
2023/06/07 08:15:55;;;;;;;5.75;1.05;;;17.10;99.90;;;;;;4967576;28;20129;-34
2023/06/07 08:18:21;;;;;;;6.75;1.08;;;17.30;99.90;;;;;;4963001;28;20051;-34
2023/06/07 08:20:47;;;;;;;8.05;1.63;;;17.50;99.90;;;;;;4964539;28;20058;-34
2023/06/07 08:23:12;;;;;;;3.95;1.10;;;17.60;99.90;;;;;;4955548;28;20552;-34
2023/06/07 08:25:38;;;;;;;5.68;1.40;;;17.70;99.90;;;;;;4955046;28;20055;-34
2023/06/07 08:28:04;;;;;;;5.30;1.25;;;17.80;99.90;;;;;;4954085;28;20058;-34
2023/06/07 08:30:31;;;;;;;4.43;1.25;;;17.90;99.90;;;;;;4953379;28;20499;-34
2023/06/07 08:32:56;;;;;;;7.25;1.50;;;18.00;99.90;;;;;;4955732;28;20091;-34
2023/06/07 08:35:22;;;;;;;3.92;1.48;;;18.10;99.90;;;;;;4954871;28;20138;-34
2023/06/07 08:37:48;;;;;;;10.95;1.45;;;18.20;99.90;;;;;;4936498;28;20566;-34
2023/06/07 08:40:18;;;;;;;6.93;1.52;;;18.30;99.90;;;;;;4952705;28;20050;-34
2023/06/07 08:42:44;;;;;;;3.22;1.08;;;18.30;99.90;;;;;;4952340;28;20499;-34
2023/06/07 08:45:10;;;;;;;6.82;1.70;;;18.40;99.90;;;;;;4956761;28;20071;-34
2023/06/07 08:47:36;;;;;;;7.03;1.95;;;18.40;99.90;;;;;;4954346;28;20055;-34
2023/06/07 08:50:03;;;;;;;3.53;1.15;;;18.40;99.90;;;;;;4952986;28;20055;-34
2023/06/07 08:52:31;;;;;;;9.20;1.92;;;18.40;99.90;;;;;;4954659;28;20063;-33
2023/06/07 08:55:02;;;;;;;4.45;1.52;;;18.40;99.90;;;;;;4959862;28;20055;-34
2023/06/07 08:57:29;;;;;;;5.13;2.03;;;18.50;99.90;;;;;;4962173;28;20051;-34
2023/06/07 08:59:56;;;;;;;5.53;1.48;;;18.50;99.90;;;;;;4964174;28;20085;-34
2023/06/07 09:02:24;;;;;;;7.57;1.60;;;18.60;99.90;;;;;;4944265;28;20094;-34
2023/06/07 09:04:51;;;;;;;5.63;1.45;;;18.60;99.90;;;;;;4962488;28;20059;-34
2023/06/07 09:07:16;;;;;;;4.90;1.92;;;18.60;99.90;;;;;;4966753;28;20654;-34
2023/06/07 09:09:43;;;;;;;5.97;1.35;;;18.60;99.90;;;;;;4957768;28;20062;-34
2023/06/07 09:12:10;;;;;;;8.48;1.80;;;18.70;99.90;;;;;;4929890;29;20099;-34
2023/06/07 09:14:36;;;;;;;5.70;1.95;;;18.80;99.90;;;;;;4928280;29;20067;-34
2023/06/07 09:17:02;;;;;;;6.55;2.30;;;18.90;99.90;;;;;;4929820;29;20067;-34
2023/06/07 09:19:36;;;;;;;4.55;1.50;;;19.00;99.90;;;;;;4926835;29;20060;-34
2023/06/07 09:22:04;;;;;;;7.18;1.75;;;19.10;99.90;;;;;;4956703;28;20110;-34
2023/06/07 09:24:31;;;;;;;8.18;1.35;;;19.00;99.90;;;;;;4957081;28;20402;-34
2023/06/07 09:26:57;;;;;;;7.25;1.77;;;19.10;99.90;;;;;;4954729;28;20057;-34
2023/06/07 09:29:23;;;;;;;6.80;1.40;;;19.20;99.90;;;;;;4951864;28;20061;-34
2023/06/07 09:31:49;;;;;;;7.22;1.70;;;19.20;99.90;;;;;;4953736;28;20130;-34
2023/06/07 09:34:26;;;;;;;8.77;1.85;;;19.20;99.90;;;;;;4952177;28;20150;-34
2023/06/07 09:36:58;;;;;;;3.70;1.30;;;19.20;99.90;;;;;;4950785;28;20409;-34
2023/06/07 09:39:25;;;;;;;;;;;19.30;99.90;;;;;;4954067;28;20494;-34
2023/06/07 09:41:54;;;;;;;6.25;1.77;;;19.50;99.90;;;;;;4952457;28;20470;-34
2023/06/07 09:44:29;;;;;;;8.57;1.80;;;19.50;99.90;;;;;;4934144;28;20057;-34
2023/06/07 09:46:56;;;;;;;5.78;2.13;;;19.60;99.90;;;;;;4947986;28;20074;-34
2023/06/07 09:49:31;;;;;;;7.43;2.17;;;19.70;99.90;;;;;;4934677;28;20485;-34
2023/06/07 09:51:57;;;;;;;6.13;1.67;;;19.70;99.90;;;;;;4930554;28;21675;-34
2023/06/07 09:54:37;;;;;;;5.97;1.90;;;19.70;99.90;;;;;;4953073;28;20050;-34
2023/06/07 09:57:08;;;;;;;7.68;2.10;;;19.80;99.90;;;;;;4957895;28;20137;-36
2023/06/07 09:59:37;;;;;;;4.68;1.70;;;19.80;99.90;;;;;;4965052;28;20051;-34
2023/06/07 10:02:24;;;;;;;9.20;2.08;;;20.00;99.90;;;;;;4961682;28;20333;-34
2023/06/07 10:04:50;;;;;;;6.07;1.88;;;20.00;99.90;;;;;;4957295;28;20050;-34
2023/06/07 10:07:21;;;;;;;7.13;2.08;;;20.10;99.90;;;;;;4956776;28;20077;-34
2023/06/07 10:09:56;;;;;;;4.43;1.92;;;20.30;99.90;;;;;;4962163;28;20193;-34
2023/06/07 10:12:26;;;;;;;7.97;2.10;;;20.40;99.90;;;;;;4942024;28;20051;-35
2023/06/07 10:14:53;;;;;;;7.38;2.55;;;20.50;99.90;;;;;;4958204;28;20089;-34
2023/06/07 10:17:25;;;;;;;5.60;1.83;;;20.60;99.90;;;;;;4960704;28;20069;-34
2023/06/07 10:19:58;;;;;;;7.28;1.75;;;20.70;99.90;;;;;;4966982;28;20493;-35
2023/06/07 10:22:31;;;;;;;7.82;1.80;;;20.90;99.90;;;;;;4951094;28;20177;-34
2023/06/07 10:25:10;;;;;;;6.13;1.55;;;21.10;99.90;;;;;;4952698;28;20074;-35
2023/06/07 10:28:11;;;;;;;7.97;1.52;;;21.20;99.90;;;;;;4949526;28;20134;-34
2023/06/07 10:30:43;;;;;;;6.68;2.35;;;21.50;99.90;;;;;;4951147;28;20081;-34
2023/06/07 10:33:10;;;;;;;6.95;1.77;;;21.70;99.90;;;;;;4949589;28;20046;-34
2023/06/07 10:35:38;;;;;;;6.03;1.92;;;21.80;99.90;;;;;;4950298;28;20266;-34
2023/06/07 10:38:04;;;;;;;5.53;1.95;;;21.80;99.90;;;;;;4956168;28;20161;-34
2023/06/07 10:40:31;;;;;;;5.20;1.58;;;21.80;99.90;;;;;;4945717;28;20145;-34
2023/06/07 10:42:57;;;;;;;4.53;1.77;;;21.80;99.90;;;;;;4965178;28;20051;-34
2023/06/07 10:45:26;;;;;;;6.03;2.05;;;21.80;99.90;;;;;;4959069;28;20092;-34
2023/06/07 10:47:51;;;;;;;4.50;1.63;;;21.80;99.90;;;;;;4959847;28;20051;-34
2023/06/07 10:50:26;;;;;;;7.78;1.95;;;21.80;99.90;;;;;;4957851;28;20066;-34
2023/06/07 10:53:00;;;;;;;4.72;1.88;;;21.80;99.90;;;;;;4957645;28;20457;-34
2023/06/07 10:55:31;;;;;;;6.68;2.15;;;21.90;99.90;;;;;;4959359;28;20074;-34
2023/06/07 10:58:00;;;;;;;9.77;2.10;;;21.90;99.90;;;;;;4966331;28;20508;-34
2023/06/07 11:00:30;;;;;;;4.95;2.05;;;22.10;99.90;;;;;;4958367;28;20046;-35
2023/06/07 11:03:04;;;;;;;4.97;1.75;;;22.30;99.90;;;;;;4952023;28;20479;-34
2023/06/07 11:05:52;;;;;;;4.85;2.10;;;22.40;99.90;;;;;;4950319;28;20118;-34
2023/06/07 11:08:24;;;;;;;4.93;2.38;;;22.50;99.90;;;;;;4934702;28;20067;-34
2023/06/07 11:10:50;;;;;;;4.75;1.75;;;22.60;99.90;;;;;;4941019;28;20047;-36
2023/06/07 11:13:16;;;;;;;6.18;2.20;;;22.60;99.90;;;;;;4943610;28;20094;-34
2023/06/07 11:15:41;;;;;;;5.30;1.80;;;22.80;99.90;;;;;;4936201;28;20121;-34
2023/06/07 11:18:08;;;;;;;6.85;2.08;;;22.90;99.90;;;;;;4943366;28;20043;-34
2023/06/07 11:20:40;;;;;;;4.85;2.33;;;23.00;99.90;;;;;;4943763;28;20149;-34
2023/06/07 11:23:21;;;;;;;4.00;1.65;;;23.20;99.90;;;;;;4937459;28;20138;-34
2023/06/07 11:25:47;;;;;;;5.32;1.95;;;23.30;99.90;;;;;;4940855;28;20055;-35
2023/06/07 11:28:13;;;;;;;6.32;2.08;;;23.50;99.90;;;;;;4934406;28;20129;-34
2023/06/07 11:30:42;;;;;;;6.95;2.10;;;23.50;99.90;;;;;;4935723;28;20051;-34
2023/06/07 11:33:13;;;;;;;4.30;1.77;;;23.60;99.90;;;;;;4936499;28;20043;-34
2023/06/07 11:35:40;;;;;;;9.63;1.80;;;23.70;99.90;;;;;;4943305;28;20615;-34
2023/06/07 11:38:06;;;;;;;5.78;2.10;;;23.80;99.90;;;;;;4935873;28;20075;-34
2023/06/07 11:40:31;;;;;;;5.18;1.85;;;23.90;99.90;;;;;;4946055;28;20129;-34
2023/06/07 11:42:57;;;;;;;6.72;1.90;;;23.80;99.90;;;;;;4940671;28;20047;-34
2023/06/07 11:45:22;;;;;;;4.47;2.00;;;23.90;99.90;;;;;;4939702;28;20082;-34
2023/06/07 11:47:49;;;;;;;5.93;2.65;;;24.00;99.90;;;;;;4937433;28;20400;-34
2023/06/07 11:50:15;;;;;;;14.85;2.42;;;24.20;99.90;;;;;;4939217;28;20062;-34
2023/06/07 11:52:40;;;;;;;6.03;2.25;;;24.30;99.90;;;;;;4938859;28;20457;-35
2023/06/07 11:55:09;;;;;;;7.00;2.10;;;24.20;99.90;;;;;;4949135;28;20059;-35
2023/06/07 11:57:37;;;;;;;5.28;1.90;;;24.30;99.90;;;;;;4948429;28;20150;-35
2023/06/07 12:00:08;;;;;;;8.40;2.15;;;24.40;99.90;;;;;;4940611;28;20109;-35
2023/06/07 12:02:40;;;;;;;5.68;1.85;;;24.40;99.90;;;;;;4948097;28;20627;-34
2023/06/07 12:05:09;;;;;;;4.07;2.03;;;24.40;99.90;;;;;;4957324;28;20062;-35
2023/06/07 12:07:35;;;;;;;7.00;2.47;;;24.60;99.90;;;;;;4964280;28;20102;-35
2023/06/07 12:10:05;;;;;;;4.97;2.00;;;24.90;99.90;;;;;;4957406;28;20117;-34
2023/06/07 12:12:31;;;;;;;5.20;2.10;;;25.20;99.90;;;;;;4954739;28;20047;-34
2023/06/07 12:15:04;;;;;;;9.23;2.55;;;25.30;99.90;;;;;;4939823;28;20514;-34
2023/06/07 12:17:36;;;;;;;4.63;1.90;;;25.30;99.90;;;;;;4954474;28;20078;-35
2023/06/07 12:20:07;;;;;;;6.43;1.70;;;25.40;99.90;;;;;;4956275;28;20050;-35
2023/06/07 12:22:33;;;;;;;7.55;2.22;;;25.50;99.90;;;;;;4958751;28;20084;-34
2023/06/07 12:25:15;;;;;;;4.50;1.98;;;25.50;99.90;;;;;;4961142;28;20050;-35
2023/06/07 12:27:47;;;;;;;8.20;1.58;;;25.60;99.90;;;;;;4958419;28;20050;-35
2023/06/07 12:30:13;;;;;;;12.43;2.53;;;25.70;99.90;;;;;;4961125;28;20070;-36
2023/06/07 12:32:39;;;;;;;5.38;1.90;;;25.80;99.90;;;;;;4960210;28;20058;-34
2023/06/07 12:35:05;;;;;;;6.00;1.90;;;25.90;99.90;;;;;;4963785;28;20054;-35
2023/06/07 12:37:37;;;;;;;5.63;1.88;;;26.10;99.90;;;;;;4965996;28;20515;-34
2023/06/07 12:40:05;;;;;;;8.02;2.42;;;26.10;99.90;;;;;;4942826;28;20054;-35
2023/06/07 12:42:35;;;;;;;4.40;1.85;;;26.10;99.90;;;;;;4937312;28;20051;-35
2023/06/07 12:45:01;;;;;;;4.80;2.25;;;26.50;99.90;;;;;;4955639;28;20126;-35
2023/06/07 12:47:27;;;;;;;5.35;2.33;;;26.80;99.90;;;;;;4942209;28;20055;-35